Terminal Aerodrome Forecast
Issued by NWS Grand Forks, ND

Home | Current Version | Previous Version | Graphics & Text | Print | Product List | Glossary On
Versions: 1 2 3 4 5 6 7 8 9 10 11 12 13 14 15 16 17
000
FTUS43 KFGF 240100 AAA
TAFGFK
TAF AMD
KGFK 240122Z 2401/2424 35015G22KT P6SM BKN008
      TEMPO 2401/2402 3SM -SN BR OVC025
     FM240200 35022G30KT 4SM -SN OVC015
     FM240300 34028G35KT 3SM -SN BKN015
     FM241200 34025G33KT P6SM BKN025=

USA.gov is the U.S. government's official web portal to all federal, state and local government web resources and services.